Capitol Logistics 923

Operating for DHL



EDDK
Cologne Bonn Airport
Cologne, DE
ESSA
Arlanda
Stockholm, SE

Activity Log

Date Flight Route Aircraft Duration
02/10/2022 CPX923 PODI5D PODIP Y867 PELUN ANZIV WRB Y867 TOLGI OKAGA VIBAR Z227 NILUG NILU2V A30F 1h 47m
10/05/2021 CPX912 PODI1Q PODIP Y867 TOLGI ELKIM MAKEL N851 PELUP Z226 NILUG NILU2N A30F 1h 39m

Route Details

Aircraft Information
Group: European Fleet
Types: A30F,A31F,B738
Route Data
Demand: M
Distance: 643nm
Duration: 2h 10m
Recm'd Route: PODI1Q PODIP Y867 TOLGI ELKIM MAKEL N851 PELUP Z226 NILUG NILU2P
Origin Wx: EDDK 272120Z AUTO 32008KT CAVOK 11/04 Q1023 NOSIG
Dest. Wx: ESSA 272120Z 27006KT 9999 -RA SCT013 BKN018 09/08 Q0995 NOSIG
Notes:

Financial History
Total Freight: 123,847lbs
Average Load: 61,924lbs/flt
Fuel Used: 37,748lbs
Avg. Fuel Used: 18,874lbs/flt
Fuel Expense: $12,652
Avg. Fuel Expense: $6,326
Avg. Fuel Cost: $0.34/lbs
Total Gross Income: $252,772
Pilot Pay: $518
Total Expenses: $31,444
Total Revenue: $207,932
Average Revenue: $126,385.86